Weather at Gran Canaria Airport

Public forecast

Using degrees Celsius for public forecast. Weather courtesy of forecast.io.

Current aviation weather report (METAR) for Gran Canaria Airport

Report is more than 6 hours old.

2022/11/14 15:30 (retrieved 2 years ago)

GCLP 141530Z VRB03KT CAVOK 27/10 Q1019 NOSIG

Aviation forecast (TAF) for Gran Canaria Airport

Forecast is more than 12 hours old.

2023/02/22 21:00 (retrieved 1 year ago)

TAF GCLP 222000Z 2221/2321 35016KT 9999 SCT030 TX21/2314Z TN17/2306Z